Time;durP1;ratioP1;P1;durP2;ratioP2;P2;SDS_P1;SDS_P2;PMS_P1;PMS_P2;Temp;Humidity;BMP_temperature;BMP_pressure;BME280_temperature;BME280_humidity;BME280_pressure;Samples;Min_cycle;Max_cycle;Signal;HPM_P1;HPM_P2
2023/02/27 00:01:43;;;;;;;23.13;12.18;;;;;;;;;;5055655;28;20025;-74
2023/02/27 00:04:28;;;;;;;21.02;11.73;;;;;;;;;;5055261;28;20017;-73
2023/02/27 00:07:14;;;;;;;20.98;11.73;;;;;;;;;;5055969;28;20025;-74
2023/02/27 00:09:59;;;;;;;24.70;12.20;;;;;;;;;;5054571;28;20092;-74
2023/02/27 00:12:45;;;;;;;23.90;12.45;;;;;;;;;;5055014;28;20027;-72
2023/02/27 00:15:31;;;;;;;21.55;11.27;;;;;;;;;;5055878;28;20028;-73
2023/02/27 00:18:16;;;;;;;22.10;12.00;;;;;;;;;;5055305;28;20027;-72
2023/02/27 00:21:02;;;;;;;25.50;11.88;;;;;;;;;;5055226;28;20032;-73
2023/02/27 00:23:47;;;;;;;22.63;11.68;;;;;;;;;;5055101;28;20024;-73
2023/02/27 00:26:33;;;;;;;17.55;10.95;;;;;;;;;;5053107;28;20025;-73
2023/02/27 00:29:18;;;;;;;16.10;10.27;;;;;;;;;;5054634;28;20028;-73
2023/02/27 00:32:04;;;;;;;18.23;10.27;;;;;;;;;;5054949;28;20491;-73
2023/02/27 00:34:50;;;;;;;17.08;10.52;;;;;;;;;;5054768;28;20037;-73
2023/02/27 00:37:35;;;;;;;20.33;11.30;;;;;;;;;;5056956;28;20067;-73
2023/02/27 00:40:24;;;;;;;15.63;10.13;;;;;;;;;;5071982;28;20025;-74
2023/02/27 00:43:09;;;;;;;17.85;10.32;;;;;;;;;;5054677;28;20032;-73
2023/02/27 00:45:55;;;;;;;18.33;10.57;;;;;;;;;;5054719;28;20017;-73
2023/02/27 00:48:40;;;;;;;17.15;11.10;;;;;;;;;;5055180;28;20377;-73
2023/02/27 00:51:26;;;;;;;25.23;12.80;;;;;;;;;;5054940;28;20455;-73
2023/02/27 00:54:11;;;;;;;23.23;12.43;;;;;;;;;;5053478;28;20055;-74
2023/02/27 00:56:57;;;;;;;21.65;13.07;;;;;;;;;;5054654;28;20104;-75
2023/02/27 00:59:43;;;;;;;18.67;11.82;;;;;;;;;;5067043;28;20040;-73
2023/02/27 01:02:28;;;;;;;19.98;12.93;;;;;;;;;;5062972;28;20021;-72
2023/02/27 01:05:14;;;;;;;19.13;12.23;;;;;;;;;;5056480;28;20017;-74
2023/02/27 01:07:59;;;;;;;22.35;12.70;;;;;;;;;;5055454;28;20025;-73
2023/02/27 01:10:45;;;;;;;18.85;12.13;;;;;;;;;;5055613;28;20016;-72
2023/02/27 01:13:31;;;;;;;21.05;12.57;;;;;;;;;;5057494;28;20029;-73
2023/02/27 01:16:16;;;;;;;22.58;13.27;;;;;;;;;;5058595;28;20029;-73
2023/02/27 01:19:02;;;;;;;21.00;12.07;;;;;;;;;;5055405;28;20358;-73
2023/02/27 01:21:48;;;;;;;20.00;11.65;;;;;;;;;;5053926;28;20021;-73
2023/02/27 01:24:33;;;;;;;20.42;11.43;;;;;;;;;;5054231;28;20055;-73
2023/02/27 01:27:19;;;;;;;21.52;11.65;;;;;;;;;;5053562;28;20401;-73
2023/02/27 01:30:05;;;;;;;18.88;11.48;;;;;;;;;;5054866;28;20025;-73
2023/02/27 01:32:51;;;;;;;15.15;10.45;;;;;;;;;;5053149;28;20048;-73
2023/02/27 01:35:37;;;;;;;17.30;10.38;;;;;;;;;;5054886;28;20466;-73
2023/02/27 01:38:22;;;;;;;26.05;11.27;;;;;;;;;;5054227;28;20020;-73
2023/02/27 01:41:08;;;;;;;21.73;10.85;;;;;;;;;;5054229;28;20047;-73
2023/02/27 01:43:58;;;;;;;17.25;10.70;;;;;;;;;;5054502;28;20044;-73
2023/02/27 01:46:44;;;;;;;15.15;9.82;;;;;;;;;;5053443;28;20013;-73
2023/02/27 01:49:32;;;;;;;18.48;10.55;;;;;;;;;;5052835;28;20024;-73
2023/02/27 01:52:17;;;;;;;18.58;10.70;;;;;;;;;;5054279;28;20037;-73
2023/02/27 01:55:05;;;;;;;19.00;11.23;;;;;;;;;;5054079;28;20021;-73
2023/02/27 01:57:51;;;;;;;19.10;10.98;;;;;;;;;;5053490;28;20025;-74
2023/02/27 02:00:36;;;;;;;18.48;11.02;;;;;;;;;;5053920;28;20021;-73
2023/02/27 02:03:44;;;;;;;17.23;11.15;;;;;;;;;;5053965;28;20021;-73
2023/02/27 02:06:30;;;;;;;18.45;11.50;;;;;;;;;;5057679;28;20009;-73
2023/02/27 02:09:17;;;;;;;19.15;11.95;;;;;;;;;;5057767;28;20025;-74
2023/02/27 02:12:03;;;;;;;19.48;12.13;;;;;;;;;;5057855;28;20470;-74
2023/02/27 02:14:49;;;;;;;24.00;13.30;;;;;;;;;;5056864;28;20033;-73
2023/02/27 02:17:38;;;;;;;19.15;11.95;;;;;;;;;;5057441;28;20025;-73
2023/02/27 02:20:44;;;;;;;20.77;12.07;;;;;;;;;;5056715;28;20031;-73
2023/02/27 02:23:36;;;;;;;21.85;12.70;;;;;;;;;;5057161;28;20021;-73
2023/02/27 02:26:39;;;;;;;25.17;13.10;;;;;;;;;;5058179;28;20112;-74
2023/02/27 02:29:25;;;;;;;23.80;13.73;;;;;;;;;;5057295;28;20029;-72
2023/02/27 02:32:40;;;;;;;24.08;14.38;;;;;;;;;;5056935;28;20045;-73
2023/02/27 02:35:25;;;;;;;24.92;13.70;;;;;;;;;;5011579;28;20039;-73
2023/02/27 02:38:29;;;;;;;25.67;13.55;;;;;;;;;;5057200;28;20124;-72
2023/02/27 02:41:24;;;;;;;25.83;13.60;;;;;;;;;;5057163;28;20017;-73
2023/02/27 02:44:12;;;;;;;25.02;13.60;;;;;;;;;;5056829;28;20100;-73
2023/02/27 02:47:14;;;;;;;22.70;13.10;;;;;;;;;;5056854;28;20036;-73
2023/02/27 02:49:59;;;;;;;23.15;12.40;;;;;;;;;;5056939;28;20035;-73
2023/02/27 02:53:05;;;;;;;19.92;12.10;;;;;;;;;;5056319;28;20029;-73
2023/02/27 02:56:12;;;;;;;21.92;11.32;;;;;;;;;;5057172;28;20087;-73
2023/02/27 02:59:04;;;;;;;22.85;12.50;;;;;;;;;;5057453;28;20036;-74
2023/02/27 03:01:52;;;;;;;19.92;12.70;;;;;;;;;;5055607;28;20337;-74
2023/02/27 03:04:40;;;;;;;22.83;12.43;;;;;;;;;;5055310;28;20028;-74
2023/02/27 03:07:28;;;;;;;24.40;12.40;;;;;;;;;;5056872;28;20083;-73
2023/02/27 03:10:23;;;;;;;20.00;11.93;;;;;;;;;;5055898;28;20044;-73
2023/02/27 03:13:16;;;;;;;23.50;12.55;;;;;;;;;;5056540;28;20017;-73
2023/02/27 03:16:14;;;;;;;21.70;12.23;;;;;;;;;;5055256;28;20021;-73
2023/02/27 03:19:11;;;;;;;22.67;13.23;;;;;;;;;;5063609;28;20028;-73
2023/02/27 03:22:07;;;;;;;26.73;13.88;;;;;;;;;;5071433;28;20021;-75
2023/02/27 03:24:54;;;;;;;26.35;13.48;;;;;;;;;;5056512;28;20048;-73
2023/02/27 03:27:46;;;;;;;26.75;14.05;;;;;;;;;;5056379;28;20050;-73
2023/02/27 03:30:34;;;;;;;30.52;14.35;;;;;;;;;;5056376;28;20025;-74
2023/02/27 03:33:26;;;;;;;26.83;14.82;;;;;;;;;;5055976;28;20044;-74
2023/02/27 03:36:30;;;;;;;31.50;14.57;;;;;;;;;;5055941;28;20029;-73
2023/02/27 03:39:19;;;;;;;30.20;15.32;;;;;;;;;;5074103;28;20025;-74
2023/02/27 03:42:10;;;;;;;37.53;16.60;;;;;;;;;;5056713;28;20094;-74
2023/02/27 03:45:03;;;;;;;36.90;16.30;;;;;;;;;;5055642;28;20021;-74
2023/02/27 03:47:49;;;;;;;38.53;17.13;;;;;;;;;;5056219;28;20099;-73
2023/02/27 03:50:35;;;;;;;33.17;16.10;;;;;;;;;;5056238;28;20033;-74
2023/02/27 03:53:29;;;;;;;33.08;16.50;;;;;;;;;;5056423;28;20457;-73
2023/02/27 03:56:17;;;;;;;36.63;16.00;;;;;;;;;;5056097;28;20420;-73
2023/02/27 03:59:03;;;;;;;30.75;16.23;;;;;;;;;;5055985;28;20044;-73
2023/02/27 04:01:48;;;;;;;38.88;17.52;;;;;;;;;;5055803;28;20357;-73
2023/02/27 04:04:34;;;;;;;28.25;15.30;;;;;;;;;;5055735;28;20032;-73
2023/02/27 04:07:38;;;;;;;33.33;16.08;;;;;;;;;;5055566;28;20079;-73
2023/02/27 04:10:32;;;;;;;31.30;15.48;;;;;;;;;;5055593;28;20028;-72
2023/02/27 04:13:44;;;;;;;31.20;15.57;;;;;;;;;;5056063;28;20464;-72
2023/02/27 04:16:30;;;;;;;27.17;15.18;;;;;;;;;;5055740;28;20032;-73
2023/02/27 04:19:34;;;;;;;26.35;15.07;;;;;;;;;;5055516;28;20041;-73
2023/02/27 04:22:40;;;;;;;35.58;16.77;;;;;;;;;;5055548;28;20020;-74
2023/02/27 04:25:40;;;;;;;31.63;15.80;;;;;;;;;;5055616;28;20041;-72
2023/02/27 04:28:30;;;;;;;31.75;14.68;;;;;;;;;;5053649;28;20390;-72
2023/02/27 04:31:15;;;;;;;30.27;15.52;;;;;;;;;;5054411;28;20108;-73
2023/02/27 04:34:01;;;;;;;29.40;15.20;;;;;;;;;;5054762;28;20458;-73
2023/02/27 04:36:49;;;;;;;31.20;15.90;;;;;;;;;;5055230;28;20025;-72
2023/02/27 04:39:44;;;;;;;29.67;15.57;;;;;;;;;;5054763;28;20017;-73
2023/02/27 04:42:31;;;;;;;29.92;15.32;;;;;;;;;;5054261;28;20075;-74
2023/02/27 04:45:18;;;;;;;25.95;14.40;;;;;;;;;;5055262;28;20029;-72
2023/02/27 04:48:05;;;;;;;28.30;15.80;;;;;;;;;;5054770;28;20032;-73
2023/02/27 04:51:01;;;;;;;33.05;15.57;;;;;;;;;;5054714;28;20073;-73
2023/02/27 04:53:47;;;;;;;28.05;14.55;;;;;;;;;;5055217;28;20338;-73
2023/02/27 04:56:34;;;;;;;34.53;16.25;;;;;;;;;;5055270;28;20031;-74
2023/02/27 04:59:23;;;;;;;34.08;15.55;;;;;;;;;;5055222;28;20092;-74
2023/02/27 05:02:14;;;;;;;35.95;18.55;;;;;;;;;;5055025;28;20079;-75
2023/02/27 05:05:03;;;;;;;42.50;18.85;;;;;;;;;;5054789;28;20025;-72
2023/02/27 05:07:51;;;;;;;39.67;17.15;;;;;;;;;;5055459;28;20021;-72
2023/02/27 05:10:45;;;;;;;37.15;18.95;;;;;;;;;;5055067;28;20106;-72
2023/02/27 05:13:42;;;;;;;36.40;17.48;;;;;;;;;;5054956;28;20107;-72
2023/02/27 05:16:31;;;;;;;41.60;19.38;;;;;;;;;;5055499;28;20108;-73
2023/02/27 05:19:18;;;;;;;41.47;19.08;;;;;;;;;;5053693;28;20052;-72
2023/02/27 05:22:12;;;;;;;38.10;18.90;;;;;;;;;;5054518;28;20060;-72
2023/02/27 05:25:05;;;;;;;34.20;17.25;;;;;;;;;;5055077;28;20040;-73
2023/02/27 05:28:06;;;;;;;35.58;16.98;;;;;;;;;;5054936;28;20030;-73
2023/02/27 05:31:11;;;;;;;37.40;17.38;;;;;;;;;;5052992;28;20013;-73
2023/02/27 05:34:29;;;;;;;25.02;14.60;;;;;;;;;;5024891;28;20044;-72
2023/02/27 05:37:27;;;;;;;29.83;15.00;;;;;;;;;;5029712;28;20072;-73
2023/02/27 05:40:18;;;;;;;34.08;16.08;;;;;;;;;;5056898;28;20024;-73
2023/02/27 05:43:07;;;;;;;31.65;16.38;;;;;;;;;;5059315;28;20021;-73
2023/02/27 05:45:58;;;;;;;31.88;14.98;;;;;;;;;;5059237;28;20099;-73
2023/02/27 05:48:50;;;;;;;27.92;15.23;;;;;;;;;;5058612;28;20027;-73
2023/02/27 05:51:37;;;;;;;27.40;15.80;;;;;;;;;;5059679;28;20025;-73
2023/02/27 05:54:25;;;;;;;32.17;16.40;;;;;;;;;;5058304;28;20114;-73
2023/02/27 05:57:13;;;;;;;32.05;15.48;;;;;;;;;;5058721;28;20020;-73
2023/02/27 06:00:02;;;;;;;30.33;14.95;;;;;;;;;;5058337;28;20020;-73
2023/02/27 06:02:47;;;;;;;26.15;15.13;;;;;;;;;;5058695;28;20434;-73
2023/02/27 06:05:34;;;;;;;30.25;16.10;;;;;;;;;;5058592;28;20429;-74
2023/02/27 06:08:20;;;;;;;41.53;16.25;;;;;;;;;;5058052;28;20056;-72
2023/02/27 06:11:06;;;;;;;32.35;15.82;;;;;;;;;;5058471;28;20021;-72
2023/02/27 06:13:52;;;;;;;33.40;16.77;;;;;;;;;;5058267;28;20088;-72
2023/02/27 06:16:37;;;;;;;33.72;15.70;;;;;;;;;;5058407;28;20059;-72
2023/02/27 06:19:23;;;;;;;33.58;16.83;;;;;;;;;;5058972;28;20040;-73
2023/02/27 06:22:09;;;;;;;32.05;15.60;;;;;;;;;;5060115;28;20067;-72
2023/02/27 06:24:55;;;;;;;30.17;16.80;;;;;;;;;;5062029;28;20047;-74
2023/02/27 06:27:40;;;;;;;37.17;19.17;;;;;;;;;;5058622;28;20021;-72
2023/02/27 06:30:26;;;;;;;31.48;16.00;;;;;;;;;;5057466;28;20017;-73
2023/02/27 06:33:12;;;;;;;33.83;15.40;;;;;;;;;;5055961;28;20053;-72
2023/02/27 06:35:57;;;;;;;28.35;15.63;;;;;;;;;;5056660;28;20025;-73
2023/02/27 06:38:43;;;;;;;32.75;17.10;;;;;;;;;;5057730;28;20107;-73
2023/02/27 06:41:29;;;;;;;33.42;16.48;;;;;;;;;;5057913;28;20032;-72
2023/02/27 06:44:14;;;;;;;32.92;16.00;;;;;;;;;;5057943;28;20032;-73
2023/02/27 06:47:00;;;;;;;31.42;16.52;;;;;;;;;;5058905;28;20029;-71
2023/02/27 06:49:45;;;;;;;33.20;17.67;;;;;;;;;;5063745;28;20021;-72
2023/02/27 06:52:31;;;;;;;33.95;17.67;;;;;;;;;;5058349;28;20059;-73
2023/02/27 06:55:19;;;;;;;34.17;17.27;;;;;;;;;;5057796;28;20108;-73
2023/02/27 06:58:05;;;;;;;39.25;19.38;;;;;;;;;;5056706;28;20033;-72
2023/02/27 07:00:50;;;;;;;39.25;19.33;;;;;;;;;;5057117;28;20083;-72
2023/02/27 07:03:36;;;;;;;36.45;18.10;;;;;;;;;;5056633;28;20099;-71
2023/02/27 07:06:22;;;;;;;31.90;17.80;;;;;;;;;;5057289;28;20024;-71
2023/02/27 07:09:07;;;;;;;34.45;17.48;;;;;;;;;;5056750;28;20013;-72
2023/02/27 07:11:53;;;;;;;39.95;20.20;;;;;;;;;;5056741;28;20028;-71
2023/02/27 07:14:38;;;;;;;39.50;20.08;;;;;;;;;;5056757;28;20415;-72
2023/02/27 07:17:24;;;;;;;38.22;18.63;;;;;;;;;;5056934;28;20056;-72
2023/02/27 07:20:10;;;;;;;43.70;23.00;;;;;;;;;;5057597;28;20036;-71
2023/02/27 07:22:56;;;;;;;35.45;18.45;;;;;;;;;;5056402;28;20441;-72
2023/02/27 07:25:41;;;;;;;34.03;17.73;;;;;;;;;;5056103;28;20025;-72
2023/02/27 07:28:27;;;;;;;34.65;17.80;;;;;;;;;;5056872;28;20013;-72
2023/02/27 07:31:13;;;;;;;33.08;18.35;;;;;;;;;;5055753;28;20113;-72
2023/02/27 07:33:58;;;;;;;35.85;17.88;;;;;;;;;;5056478;28;20469;-72
2023/02/27 07:36:44;;;;;;;42.30;20.52;;;;;;;;;;5056812;28;20021;-72
2023/02/27 07:39:30;;;;;;;35.53;19.23;;;;;;;;;;5056412;28;20346;-72
2023/02/27 07:42:15;;;;;;;36.70;20.05;;;;;;;;;;5055430;28;20116;-71
2023/02/27 07:45:01;;;;;;;32.80;18.63;;;;;;;;;;5056009;28;20025;-70
2023/02/27 07:47:46;;;;;;;37.00;19.80;;;;;;;;;;5056274;28;20124;-71
2023/02/27 07:50:32;;;;;;;39.38;20.27;;;;;;;;;;5055733;28;20035;-70
2023/02/27 07:53:17;;;;;;;36.50;20.27;;;;;;;;;;5055950;28;20013;-74
2023/02/27 07:56:03;;;;;;;36.15;20.48;;;;;;;;;;5056353;28;20537;-72
2023/02/27 07:58:49;;;;;;;40.35;20.15;;;;;;;;;;5055816;28;20040;-72
2023/02/27 08:01:34;;;;;;;37.08;19.50;;;;;;;;;;5055620;28;20017;-72
2023/02/27 08:04:20;;;;;;;38.88;19.80;;;;;;;;;;5055242;28;20104;-71
2023/02/27 08:07:05;;;;;;;33.90;18.83;;;;;;;;;;5055823;28;20025;-72
2023/02/27 08:09:51;;;;;;;32.30;19.20;;;;;;;;;;5055445;28;20009;-72
2023/02/27 08:12:38;;;;;;;31.30;18.10;;;;;;;;;;5055676;28;20104;-71
2023/02/27 08:15:23;;;;;;;32.60;17.92;;;;;;;;;;5055636;28;20104;-71
2023/02/27 08:18:09;;;;;;;29.13;17.98;;;;;;;;;;5055487;28;20017;-71
2023/02/27 08:20:55;;;;;;;29.65;17.35;;;;;;;;;;5055404;28;20048;-71
2023/02/27 08:23:41;;;;;;;31.67;17.52;;;;;;;;;;5054264;28;20021;-72
2023/02/27 08:26:26;;;;;;;31.77;18.10;;;;;;;;;;5054370;28;20307;-72
2023/02/27 08:29:12;;;;;;;33.88;20.65;;;;;;;;;;5055490;28;20024;-71
2023/02/27 08:31:58;;;;;;;37.78;21.20;;;;;;;;;;5054364;28;20437;-72
2023/02/27 08:34:44;;;;;;;42.45;24.55;;;;;;;;;;5055215;28;20024;-71
2023/02/27 08:37:30;;;;;;;38.42;21.48;;;;;;;;;;5054054;28;20182;-72
2023/02/27 08:40:16;;;;;;;35.75;21.70;;;;;;;;;;5055399;28;20017;-72
2023/02/27 08:43:01;;;;;;;38.10;21.38;;;;;;;;;;5053634;28;20028;-73
2023/02/27 08:45:48;;;;;;;40.75;23.23;;;;;;;;;;5055222;28;20037;-73
2023/02/27 08:48:33;;;;;;;48.65;26.13;;;;;;;;;;5054386;28;20048;-72
2023/02/27 08:51:19;;;;;;;36.85;22.50;;;;;;;;;;5055922;28;20036;-73
2023/02/27 08:54:04;;;;;;;36.63;21.98;;;;;;;;;;5055229;28;20071;-72
2023/02/27 08:56:50;;;;;;;39.00;22.83;;;;;;;;;;5053906;28;20035;-74
2023/02/27 08:59:36;;;;;;;36.35;22.23;;;;;;;;;;5055754;28;20036;-73
2023/02/27 09:02:25;;;;;;;36.38;21.85;;;;;;;;;;5055466;28;20347;-74
2023/02/27 09:05:11;;;;;;;34.88;20.80;;;;;;;;;;5056694;28;20021;-74
2023/02/27 09:07:56;;;;;;;37.70;22.02;;;;;;;;;;5055631;28;20447;-74
2023/02/27 09:10:42;;;;;;;38.95;22.17;;;;;;;;;;5054583;28;20032;-72
2023/02/27 09:13:28;;;;;;;37.13;22.00;;;;;;;;;;5055197;28;20021;-75
2023/02/27 09:16:13;;;;;;;34.13;21.30;;;;;;;;;;5054776;28;20048;-73
2023/02/27 09:18:59;;;;;;;41.40;22.55;;;;;;;;;;5054162;28;20024;-73
2023/02/27 09:21:44;;;;;;;37.17;20.98;;;;;;;;;;5054535;28;20038;-73
2023/02/27 09:24:30;;;;;;;34.85;21.48;;;;;;;;;;5054830;28;20164;-72
2023/02/27 09:27:16;;;;;;;36.40;22.88;;;;;;;;;;5054435;28;20013;-72
2023/02/27 09:30:01;;;;;;;37.00;22.15;;;;;;;;;;5054503;28;20303;-72
2023/02/27 09:32:47;;;;;;;36.45;22.10;;;;;;;;;;5053474;28;20048;-73
2023/02/27 09:35:33;;;;;;;34.92;21.10;;;;;;;;;;5053259;28;20049;-72
2023/02/27 09:38:18;;;;;;;31.25;19.23;;;;;;;;;;5055250;28;20028;-74
2023/02/27 09:41:04;;;;;;;29.67;19.02;;;;;;;;;;5053722;28;20017;-72
2023/02/27 09:43:50;;;;;;;27.67;19.20;;;;;;;;;;5053370;28;20120;-72
2023/02/27 09:46:36;;;;;;;26.02;17.55;;;;;;;;;;5054575;28;20017;-73
2023/02/27 09:49:23;;;;;;;25.20;16.80;;;;;;;;;;5054832;28;20025;-72
2023/02/27 09:52:09;;;;;;;28.15;17.30;;;;;;;;;;5055435;28;20036;-72
2023/02/27 09:54:55;;;;;;;27.30;17.33;;;;;;;;;;5055683;28;20122;-70
2023/02/27 09:57:40;;;;;;;26.65;17.17;;;;;;;;;;5055288;28;20113;-72
2023/02/27 10:00:27;;;;;;;31.08;18.55;;;;;;;;;;5054654;28;20032;-72
2023/02/27 10:03:28;;;;;;;26.90;17.20;;;;;;;;;;5054403;28;20449;-72
2023/02/27 10:06:20;;;;;;;26.33;17.40;;;;;;;;;;5054275;28;20036;-72
2023/02/27 10:09:26;;;;;;;25.05;16.80;;;;;;;;;;5054780;28;20434;-72
2023/02/27 10:12:15;;;;;;;28.85;17.63;;;;;;;;;;5053309;28;20021;-71
2023/02/27 10:15:04;;;;;;;29.33;18.70;;;;;;;;;;5054791;28;20032;-72
2023/02/27 10:17:51;;;;;;;30.50;19.63;;;;;;;;;;5054509;28;20021;-72
2023/02/27 10:20:39;;;;;;;29.92;19.45;;;;;;;;;;5053340;28;20358;-72
2023/02/27 10:23:43;;;;;;;32.22;20.88;;;;;;;;;;5054044;28;20446;-72
2023/02/27 10:26:32;;;;;;;30.17;20.63;;;;;;;;;;5055737;28;20047;-72
2023/02/27 10:29:27;;;;;;;30.02;20.52;;;;;;;;;;5058762;28;20040;-71
2023/02/27 10:32:12;;;;;;;31.63;20.98;;;;;;;;;;5057500;28;20037;-73
2023/02/27 10:35:07;;;;;;;35.28;22.45;;;;;;;;;;5058281;28;20032;-72
2023/02/27 10:38:01;;;;;;;31.33;20.48;;;;;;;;;;5056562;28;20112;-72
2023/02/27 10:40:47;;;;;;;30.48;20.42;;;;;;;;;;5057908;28;20430;-73
2023/02/27 10:43:33;;;;;;;27.90;18.50;;;;;;;;;;5057771;28;20029;-73
2023/02/27 10:46:23;;;;;;;27.40;18.83;;;;;;;;;;5057770;28;20032;-72
2023/02/27 10:49:14;;;;;;;29.52;20.08;;;;;;;;;;5056363;28;20327;-73
2023/02/27 10:52:05;;;;;;;32.92;20.48;;;;;;;;;;5057752;28;20047;-72
2023/02/27 10:54:51;;;;;;;32.63;20.92;;;;;;;;;;5057115;28;20112;-71
2023/02/27 10:57:41;;;;;;;31.30;19.73;;;;;;;;;;5057397;28;20021;-72
2023/02/27 11:00:42;;;;;;;29.92;19.40;;;;;;;;;;5057566;28;20114;-71
2023/02/27 11:03:31;;;;;;;27.58;18.85;;;;;;;;;;5057341;28;20077;-72
2023/02/27 11:06:21;;;;;;;25.52;17.58;;;;;;;;;;5057273;28;20032;-72
2023/02/27 11:09:21;;;;;;;23.17;16.75;;;;;;;;;;5057069;28;20017;-72
2023/02/27 11:12:23;;;;;;;23.73;16.13;;;;;;;;;;5055531;28;20021;-72
2023/02/27 11:15:14;;;;;;;22.85;16.17;;;;;;;;;;5057302;28;20021;-72
2023/02/27 11:18:18;;;;;;;21.95;15.07;;;;;;;;;;5056726;28;20021;-74
2023/02/27 11:21:09;;;;;;;22.52;15.15;;;;;;;;;;5057246;28;20107;-72
2023/02/27 11:23:57;;;;;;;22.70;16.00;;;;;;;;;;5056860;28;20029;-73
2023/02/27 11:26:57;;;;;;;23.10;15.90;;;;;;;;;;5054704;28;20350;-72
2023/02/27 11:30:00;;;;;;;24.98;16.23;;;;;;;;;;5055887;28;20032;-71
2023/02/27 11:32:47;;;;;;;27.40;16.90;;;;;;;;;;5054804;28;20132;-71
2023/02/27 11:35:35;;;;;;;24.52;16.60;;;;;;;;;;5056929;28;20102;-72
2023/02/27 11:38:25;;;;;;;21.58;15.25;;;;;;;;;;5055023;28;20059;-72
2023/02/27 11:41:11;;;;;;;25.27;17.65;;;;;;;;;;5056508;28;20445;-72
2023/02/27 11:43:57;;;;;;;24.60;17.85;;;;;;;;;;5056116;28;20024;-72
2023/02/27 11:46:43;;;;;;;27.40;19.65;;;;;;;;;;5055180;28;20037;-73
2023/02/27 11:49:32;;;;;;;28.20;19.25;;;;;;;;;;5055657;28;20028;-74
2023/02/27 11:52:28;;;;;;;29.23;19.67;;;;;;;;;;5055966;28;20013;-74
2023/02/27 11:55:16;;;;;;;24.98;19.08;;;;;;;;;;5054779;28;20511;-76
2023/02/27 11:58:21;;;;;;;25.98;19.33;;;;;;;;;;5056441;28;20021;-73
2023/02/27 12:01:36;;;;;;;26.00;18.92;;;;;;;;;;5055985;28;20137;-73
2023/02/27 12:04:24;;;;;;;26.80;18.98;;;;;;;;;;5050985;28;20060;-75
2023/02/27 12:07:14;;;;;;;24.92;18.00;;;;;;;;;;5055816;28;20021;-74
2023/02/27 12:10:09;;;;;;;21.75;15.90;;;;;;;;;;5055919;28;20017;-75
2023/02/27 12:12:55;;;;;;;16.83;13.45;;;;;;;;;;5055484;28;20394;-74
2023/02/27 12:15:47;;;;;;;15.90;12.75;;;;;;;;;;5056082;28;20029;-74
2023/02/27 12:18:51;;;;;;;14.82;11.93;;;;;;;;;;5054816;28;20029;-74
2023/02/27 12:21:40;;;;;;;12.45;10.82;;;;;;;;;;5054737;28;20023;-74
2023/02/27 12:24:38;;;;;;;12.88;10.30;;;;;;;;;;5056025;28;20113;-73
2023/02/27 12:27:42;;;;;;;15.00;10.30;;;;;;;;;;5055496;28;20048;-73
2023/02/27 12:30:30;;;;;;;11.02;9.30;;;;;;;;;;5055684;28;20094;-74
2023/02/27 12:33:16;;;;;;;15.00;10.85;;;;;;;;;;5054798;28;20075;-74
2023/02/27 12:36:03;;;;;;;13.02;10.45;;;;;;;;;;5055437;28;20036;-74
2023/02/27 12:38:49;;;;;;;11.75;9.27;;;;;;;;;;5057966;28;20028;-75
2023/02/27 12:41:35;;;;;;;12.07;10.20;;;;;;;;;;5054657;28;20021;-76
2023/02/27 12:44:41;;;;;;;14.82;10.88;;;;;;;;;;5055184;28;20035;-74
2023/02/27 12:47:26;;;;;;;13.35;11.43;;;;;;;;;;5055380;28;20017;-75
2023/02/27 12:50:19;;;;;;;13.18;11.30;;;;;;;;;;5054351;28;20053;-75
2023/02/27 12:53:28;;;;;;;15.27;11.65;;;;;;;;;;5054849;28;20021;-74
2023/02/27 12:56:19;;;;;;;12.93;11.30;;;;;;;;;;5053838;28;20020;-75
2023/02/27 12:59:22;;;;;;;14.13;11.13;;;;;;;;;;5055097;28;20084;-75
2023/02/27 13:02:30;;;;;;;17.02;11.25;;;;;;;;;;5054947;28;20365;-74
2023/02/27 13:05:21;;;;;;;13.35;10.90;;;;;;;;;;5035736;28;20356;-75
2023/02/27 13:08:07;;;;;;;12.30;10.77;;;;;;;;;;5055226;28;20413;-74
2023/02/27 13:10:58;;;;;;;16.02;11.00;;;;;;;;;;5059145;28;20021;-75
2023/02/27 13:13:49;;;;;;;13.45;11.50;;;;;;;;;;5061388;28;20028;-74
2023/02/27 13:16:40;;;;;;;14.20;11.80;;;;;;;;;;5054834;28;20114;-74
2023/02/27 13:19:33;;;;;;;13.75;11.10;;;;;;;;;;5054846;28;20430;-76
2023/02/27 13:22:19;;;;;;;14.00;11.75;;;;;;;;;;5055775;28;20024;-75
2023/02/27 13:25:10;;;;;;;20.02;12.23;;;;;;;;;;5054323;28;20028;-75
2023/02/27 13:27:59;;;;;;;14.15;11.68;;;;;;;;;;5054031;28;20122;-76
2023/02/27 13:30:51;;;;;;;14.88;12.25;;;;;;;;;;5054032;28;20047;-75
2023/02/27 13:33:41;;;;;;;16.75;11.73;;;;;;;;;;5059527;28;20056;-76
2023/02/27 13:36:26;;;;;;;14.07;11.57;;;;;;;;;;5057725;28;20116;-74
2023/02/27 13:39:30;;;;;;;15.10;11.85;;;;;;;;;;5055850;28;20029;-75
2023/02/27 13:42:25;;;;;;;16.27;12.05;;;;;;;;;;5055144;28;20025;-75
2023/02/27 13:45:40;;;;;;;12.73;11.35;;;;;;;;;;5054347;28;20079;-75
2023/02/27 13:48:42;;;;;;;17.55;13.50;;;;;;;;;;5022209;28;20059;-75
2023/02/27 13:51:33;;;;;;;14.93;12.32;;;;;;;;;;5067094;28;20025;-75
2023/02/27 13:54:19;;;;;;;14.65;11.40;;;;;;;;;;5054122;28;20083;-78
2023/02/27 13:57:16;;;;;;;14.98;12.40;;;;;;;;;;5053923;28;20059;-73
2023/02/27 14:00:07;;;;;;;14.57;11.80;;;;;;;;;;5054094;28;20086;-74
2023/02/27 14:03:19;;;;;;;16.13;12.68;;;;;;;;;;5067480;28;20029;-74
2023/02/27 14:06:05;;;;;;;16.20;12.35;;;;;;;;;;5063661;28;20032;-73
2023/02/27 14:08:54;;;;;;;17.67;12.05;;;;;;;;;;5057541;28;20036;-75
2023/02/27 14:11:49;;;;;;;17.08;12.82;;;;;;;;;;5059218;28;20423;-74
2023/02/27 14:14:39;;;;;;;17.30;13.35;;;;;;;;;;5061945;28;20036;-75
2023/02/27 14:17:34;;;;;;;16.85;12.60;;;;;;;;;;5060970;28;20140;-74
2023/02/27 14:20:23;;;;;;;15.82;13.07;;;;;;;;;;5059774;28;20029;-74
2023/02/27 14:23:14;;;;;;;15.70;12.75;;;;;;;;;;5057062;28;20430;-73
2023/02/27 14:26:19;;;;;;;17.67;13.57;;;;;;;;;;5055852;28;20079;-74
2023/02/27 14:29:04;;;;;;;18.73;13.32;;;;;;;;;;5059512;28;20017;-74
2023/02/27 14:31:51;;;;;;;16.80;12.73;;;;;;;;;;5057446;28;20350;-74
2023/02/27 14:34:39;;;;;;;14.05;11.48;;;;;;;;;;5056941;28;20025;-75
2023/02/27 14:37:25;;;;;;;16.08;11.60;;;;;;;;;;5056482;28;20406;-76
2023/02/27 14:40:20;;;;;;;17.35;13.05;;;;;;;;;;5057769;28;20407;-75
2023/02/27 14:43:24;;;;;;;15.20;11.57;;;;;;;;;;5057312;28;20053;-74
2023/02/27 14:46:13;;;;;;;15.07;11.23;;;;;;;;;;5057220;28;20441;-74
2023/02/27 14:49:03;;;;;;;15.52;11.00;;;;;;;;;;5057259;28;20357;-74
2023/02/27 14:51:49;;;;;;;13.10;10.75;;;;;;;;;;5056954;28;20022;-75
2023/02/27 14:54:35;;;;;;;14.20;10.80;;;;;;;;;;5056695;28;20414;-73
2023/02/27 14:57:22;;;;;;;12.45;10.20;;;;;;;;;;5057337;28;20033;-72
2023/02/27 15:00:27;;;;;;;17.83;10.73;;;;;;;;;;5056473;28;20090;-73
2023/02/27 15:03:16;;;;;;;12.25;10.25;;;;;;;;;;5056182;28;20515;-73
2023/02/27 15:06:03;;;;;;;15.93;11.07;;;;;;;;;;5056512;28;20354;-73
2023/02/27 15:08:51;;;;;;;19.40;10.65;;;;;;;;;;5057093;28;20099;-72
2023/02/27 15:11:39;;;;;;;11.65;9.80;;;;;;;;;;5055650;28;20415;-73
2023/02/27 15:14:36;;;;;;;14.82;10.35;;;;;;;;;;5056546;28;20023;-74
2023/02/27 15:17:23;;;;;;;15.57;10.82;;;;;;;;;;5056468;28;20052;-73
2023/02/27 15:20:21;;;;;;;13.35;9.77;;;;;;;;;;5058567;28;20036;-74
2023/02/27 15:23:26;;;;;;;16.30;11.65;;;;;;;;;;5074102;28;20058;-75
2023/02/27 15:26:13;;;;;;;15.43;11.57;;;;;;;;;;5074405;28;20016;-75
2023/02/27 15:28:59;;;;;;;18.60;11.85;;;;;;;;;;5074880;28;20048;-75
2023/02/27 15:31:45;;;;;;;15.98;11.23;;;;;;;;;;5074144;28;20031;-74
2023/02/27 15:34:31;;;;;;;14.40;11.60;;;;;;;;;;5075706;28;20479;-75
2023/02/27 15:37:21;;;;;;;14.38;11.48;;;;;;;;;;5074384;28;20043;-74
2023/02/27 15:40:11;;;;;;;15.60;11.07;;;;;;;;;;5074462;28;20050;-75
2023/02/27 15:42:57;;;;;;;14.73;11.88;;;;;;;;;;5075460;28;20028;-75
2023/02/27 15:45:43;;;;;;;14.65;12.07;;;;;;;;;;5074991;28;20051;-74
2023/02/27 15:48:29;;;;;;;18.52;12.88;;;;;;;;;;5074659;28;20352;-75
2023/02/27 15:51:16;;;;;;;17.15;12.27;;;;;;;;;;5074301;28;20021;-74
2023/02/27 15:54:02;;;;;;;16.88;11.93;;;;;;;;;;5075648;28;20480;-75
2023/02/27 15:56:48;;;;;;;19.02;13.57;;;;;;;;;;5074585;28;20505;-75
2023/02/27 15:59:36;;;;;;;20.33;14.40;;;;;;;;;;5073759;28;20048;-75
2023/02/27 16:02:24;;;;;;;20.40;14.20;;;;;;;;;;5074061;28;20446;-75
2023/02/27 16:05:17;;;;;;;20.63;14.43;;;;;;;;;;5071879;28;20107;-75
2023/02/27 16:08:04;;;;;;;19.95;14.68;;;;;;;;;;5039559;28;20370;-75
2023/02/27 16:10:50;;;;;;;21.63;14.45;;;;;;;;;;5034638;28;20021;-74
2023/02/27 16:13:37;;;;;;;19.50;14.75;;;;;;;;;;5037298;28;20079;-75
2023/02/27 16:16:26;;;;;;;23.30;14.75;;;;;;;;;;5035059;28;20032;-75
2023/02/27 16:19:23;;;;;;;22.77;15.30;;;;;;;;;;5035453;28;20121;-76
2023/02/27 16:22:12;;;;;;;25.05;15.50;;;;;;;;;;5034778;28;20029;-75
2023/02/27 16:25:08;;;;;;;30.77;15.98;;;;;;;;;;5036375;28;20034;-75
2023/02/27 16:27:54;;;;;;;30.08;15.85;;;;;;;;;;5035872;28;20029;-74